Pagina principale
METAR-TAF:

METAR-TAF

Aeroporti :

Aeroporto di Grosseto

Grosseto, Italia

latitudine: 42-45N, longitudine: 011-04E, altezza: 5 m

Osservazione

Il bollettino è stato emesso 24 minuti fa, alle 12:55 UTC
Vento 12 kt da nord/nord-est
Temperature 9°C
Umidità 53%
Pressione 1030 hPa
Visibilità 10 km o più
Poco nuvoloso ad un'altezza di 2300 ft

METAR: LIRS 091255Z 03012KT 9999 FEW023 09/M00 Q1030 RMK FEW VIS MIN 9999 WIND THR03 04013KT WIND THR21 04013KT BLU

Ora: 14:19 (13:19 UTC)

Previsione

Il bollettino è stato emesso 2 ore e 19 minuti fa, alle 11:00 UTC
Previsione valida dal 09 alle 12 UTC al 09 alle 21 UTC
Vento 13 kt da nord-est
Visibilità 10 km o più
Poco nuvoloso ad un'altezza di 2000 ft
Temporaneamente
dal 09 alle 12 UTC al 09 alle 18 UTC
Vento 15 kt da nord-est con raffiche fino a 25 kt

TAF: LIRS 091100Z 0912/0921 05013KT 9999 FEW020 TEMPO 0912/0918 05015G25KT

Osservazioni e previsioni meteorologiche di più di 4000 aeroporti (messaggi METAR e TAF).

Le stazioni disponibili sono rappresentate dai dischi gialli e rossi sulla carta.

Puntare il mouse per vedere il nome della stazione.

Clicca sopra per visualizzare le osservazioni e previsioni meteorologiche.

Per cambiare la mappa : fare clic sui pulsanti verdi con una croce nera per ingrandire, il pulsante verde con un trattino per diminuire, o sulla freccia verde per le mappe adiacenti.


METAR-TAF: